Weather observations for the past three days for
College Park Airport
Metric (Imperial)
Date Time (edt) Wind (kph) Vis. (km) Weather Sky Cond. Temperature (ºC) Relative Humidity Wind Chill (°C) Heat Index (°C) Pressure Precipitation (cm)
Air Dwpt 6 hour altimeter (cm) sea level (mb) 1 hr 3 hr 6 hr
Max. Min.
02 18:55 Calm 16.09 Fair CLR 24.4 22.1 87% 25 76.33 0.0
02 18:35 E 6 16.09 Fair CLR 25 21.9 83% 26 76.33 0.0
02 18:15 NE 6 16.09 Fair CLR 24.8 21.8 83% 25 76.33 0.0
02 17:55 Calm 16.09 Fair CLR 24.7 21.8 84% 25 76.35 0.0
02 17:35 Calm 16.09 Fair CLR 24.2 22.4 90% 24 76.38 0.0
02 17:10 Calm 16.09 Fair CLR 23.7 22.8 95% 76.38 0.0
02 16:55 Calm 16.09 Fair CLR 23.7 22.4 92% 76.38 0.0 0.05
02 16:35 Calm 16.09 Fair CLR 23.5 22.2 92% 76.35 0.0
02 16:15 Calm 16.09 Fair CLR 24 22.1 89% 24 76.38 0.0
02 15:55 SW 7 16.09 Fair CLR 24 22 89% 24 76.4 0.0
02 15:35 S 6 16.09 Fair CLR 23.9 22.2 90% 23 76.35 0.0
02 15:15 Calm 16.09 Fair CLR 23.8 21.6 88% 76.33 0.0
02 14:55 Calm 16.09 Partly Cloudy SCT048 SCT070 SCT110 23.8 21.8 89% 76.35 0.0 0.03
02 14:35 Calm 16.09 Light Rain SCT050 SCT080 BKN100 23.4 21.2 88% 76.43 0.0 0.03
02 14:15 W 6 16.09 Rain SCT050 BKN095 OVC120 23.4 21.3 88% 76.48 0.0 0.03
02 13:55 N 17 G 44 8.05 Heavy Rain Fog/Mist SCT027 BKN048 OVC065 23.2 21.3 31.4 23.2 89% 76.53 0.0 0.33 0.33
02 13:35 N 30 G 48 16.09 Mostly Cloudy BKN028 BKN048 BKN090 28.8 22.4 68% 32 76.58 0.0
02 13:15 NE 9 16.09 Partly Cloudy SCT030 30.8 23 63% 35 76.45 0.0
02 12:55 E 11 16.09 Partly Cloudy SCT030 30.9 23 63% 35 76.43 0.0
02 12:35 N 9 16.09 Fair CLR 30.7 23.2 64% 35 76.4 0.0
02 12:15 Calm 16.09 Fair CLR 30.2 22.7 64% 34 76.4 0.0
02 11:55 E 6 16.09 Fair CLR 30 22.9 66% 34 76.4 0.0
02 11:35 E 9 16.09 Fair CLR 29.9 23.3 68% 34 76.4 0.0
02 11:15 E 9 16.09 Fair CLR 29.9 22.9 66% 34 76.4 0.0
02 10:55 E 13 16.09 Fair CLR 29.7 22.6 66% 33 76.4 0.0
02 10:35 NE 9 16.09 Fair CLR 28.9 22 66% 32 76.4 0.0
02 10:15 E 7 16.09 Fair CLR 28.9 22 66% 32 76.4 0.0
02 09:55 NE 7 16.09 Fair CLR 28.1 21.7 68% 31 76.4 0.0
02 09:35 NE 7 16.09 Fair CLR 27.7 21.4 69% 30 76.4 0.0
02 09:15 E 7 16.09 Fair CLR 27.6 21.7 70% 30 76.4 0.0
02 08:55 E 6 16.09 Fair CLR 26.9 21.4 72% 29 76.38 0.0
02 08:35 E 7 16.09 Fair CLR 26.2 21.4 75% 28 76.35 0.0
02 08:15 NE 6 16.09 Fair CLR 25.4 21.8 81% 27 76.35 0.0
02 07:55 Calm 16.09 Fair CLR 24.4 22 26.9 23 87% 25 76.35 0.0
02 07:35 Calm 16.09 Fair CLR 24.4 21.7 85% 25 76.35 0.0
02 07:15 Calm 16.09 Fair CLR 23.9 21.9 89% 24 76.35 0.0
02 06:55 Calm 16.09 Fair CLR 23.3 21.9 92% 76.35 0.0
02 06:35 Calm 16.09 Fair CLR 23.5 21.7 90% 76.35 0.0
02 06:15 Calm 16.09 Fair CLR 23.5 21.9 91% 76.35 0.0
02 05:55 Calm 16.09 Fair CLR 23.2 21.6 91% 76.33 0.0
02 05:35 Calm 16.09 Fair CLR 23.7 21.7 89% 76.33 0.0
02 05:15 Calm 16.09 Fair CLR 24.1 21.8 87% 24 76.33 0.0
02 04:55 Calm 16.09 Fair CLR 24.5 21.8 85% 25 76.33 0.0
02 04:35 Calm 16.09 Fair CLR 24.4 21.9 86% 25 76.33 0.0
02 04:15 Calm 16.09 Fair CLR 24.7 22.1 86% 25 76.33 0.0
02 03:55 Calm 16.09 Fair CLR 24.4 22.3 88% 24 76.3 0.0
02 03:35 Calm 16.09 Fair CLR 24.3 22.4 89% 24 76.3 0.0
02 03:15 Calm 16.09 Fair CLR 24.5 22.3 88% 25 76.3 0.0
02 02:55 Calm 16.09 Fair CLR 25.6 22.2 82% 27 76.28 0.0
02 02:35 Calm 16.09 Fair CLR 26.2 22.3 79% 28 76.28 0.0
02 02:15 NE 6 16.09 Fair CLR 26.5 22.2 77% 28 76.25 0.0
02 01:55 NE 6 16.09 Fair CLR 26.9 22.1 33.1 25.5 75% 29 76.28 0.0
02 01:35 Calm 16.09 Fair CLR 25.7 21.7 79% 27 76.25 0.0
02 01:15 Calm 16.09 Fair CLR 26.7 21.4 73% 29 76.25 0.0
02 00:55 Calm 16.09 Fair CLR 27.8 21 67% 30 76.28 0.0
02 00:35 N 9 16.09 Fair CLR 27.7 21.2 68% 30 76.25 0.0
02 00:15 Calm 16.09 Fair CLR 29 20.7 61% 31 76.23 0.0
01 23:55 Calm 16.09 Fair CLR 28.2 21.1 65% 30 76.2 0.0
01 23:35 Calm 16.09 Fair CLR 30.3 20.5 56% 33 76.17 0.0
01 23:15 W 6 16.09 Fair CLR 30.4 20.5 55% 33 76.17 0.0
01 22:55 W 11 16.09 Fair CLR 30.8 20.5 54% 33 76.12 0.0
01 22:30 W 11 16.09 Fair CLR 31.2 20.6 53% 34 76.15 0.0
01 22:15 W 13 16.09 Fair CLR 31.3 20.7 53% 34 76.17 0.0
01 21:35 W 11 16.09 Fair CLR 31.2 21.8 57% 35 76.12 0.0
01 21:15 NW 7 16.09 Fair CLR 31.6 22.1 57% 35 76.12 0.0
01 20:55 W 6 16.09 Fair CLR 31.9 22.1 56% 36 76.1 0.0
01 20:35 W 6 16.09 Fair CLR 32.3 21.9 54% 36 76.07 0.0
01 20:15 SW 9 16.09 Fair CLR 32.7 21.6 52% 36 76.02 0.0
01 19:55 SW 9 16.09 Partly Cloudy SCT065 33.1 21.5 35.9 33.1 51% 37 76.02 0.0
01 19:35 SW 9 16.09 Mostly Cloudy BKN065 BKN075 33.8 21.4 48% 37 76.02 0.0
01 19:15 SW 7 16.09 Overcast OVC065 34.1 21.2 47% 38 76.05 0.0
01 18:55 SW 13 16.09 Mostly Cloudy BKN075 BKN085 34.2 20.8 45% 37 76.05 0.0
01 18:35 SW 7 16.09 Partly Cloudy SCT075 34.4 20.9 45% 38 76.05 0.0
01 18:15 SW 11 16.09 Fair CLR 34.5 21.1 46% 38 76.05 0.0
01 17:55 SW 11 16.09 Fair CLR 34.7 21 45% 38 76.05 0.0
01 17:35 SW 11 16.09 Fair CLR 34.8 21.2 45% 38 76.05 0.0
01 17:15 NW 13 16.09 Fair CLR 34.9 21 44% 38 76.07 0.0
01 16:55 SW 11 16.09 Fair CLR 35.2 21.1 44% 39 76.07 0.0
01 16:35 SW 9 11.27 Partly Cloudy SCT100 35.1 21.6 45% 39 76.1 0.0
01 16:15 NW 13 6.44 Overcast with Haze SCT060 OVC100 34.8 21.4 46% 39 76.1 0.0
01 15:55 W 11 16.09 Mostly Cloudy SCT060 BKN100 35.2 21.2 44% 39 76.1 0.0
01 15:35 SW 17 11.27 Mostly Cloudy BKN060 BKN110 35.7 20.4 41% 39 76.12 0.0
01 15:15 W 11 16.09 Partly Cloudy SCT060 SCT110 34.5 20.8 45% 38 76.15 0.0
01 14:55 W 17 8.05 Fair with Haze CLR 35.1 20.5 42% 38 76.15 0.0
01 14:35 W 17 11.27 Partly Cloudy SCT050 SCT065 35.2 20.5 42% 38 76.17 0.0
01 14:15 NW 13 16.09 Mostly Cloudy BKN050 BKN065 34.6 21.6 47% 39 76.15 0.0
01 13:55 W 11 11.27 Partly Cloudy SCT050 SCT065 34.3 21.6 34.8 25.5 47% 38 76.17 0.0
01 13:35 NW 17 11.27 Fair with Haze CLR 33.6 21.8 50% 38 76.17 0.0
01 13:15 W 11 16.09 Fair CLR 33.5 21.7 50% 37 76.17 0.0
01 12:55 W 11 16.09 Fair CLR 32.9 21.7 52% 37 76.2 0.0
01 12:35 NW 13 16.09 Fair CLR 32.9 21.7 52% 37 76.2 0.0
01 12:15 NW 11 11.27 Fair with Haze CLR 33.8 21.9 50% 38 76.23 0.0
01 11:55 W 13 6.44 Fair with Haze CLR 33.1 22.2 53% 37 76.25 0.0
01 11:35 W 11 16.09 Fair CLR 32.2 21.7 54% 36 76.25 0.0
01 11:15 W 7 8.05 Partly Cloudy with Haze SCT065 32.1 21.6 54% 36 76.28 0.0
01 10:55 W 11 4.02 Fair with Haze CLR 32.6 21.1 51% 36 76.28 0.0
01 10:35 NW 9 16.09 Fair CLR 31 21.6 57% 34 76.28 0.0
01 10:15 W 7 16.09 Fair CLR 30.7 21.5 58% 34 76.28 0.0
01 09:55 SW 6 16.09 Fair CLR 30.8 22.1 60% 34 76.28 0.0
01 09:35 SW 7 16.09 Fair CLR 30.4 21.8 60% 34 76.28 0.0
01 09:15 SW 6 16.09 Fair CLR 29.4 22.4 66% 33 76.3 0.0
01 08:55 Calm 16.09 Fair CLR 28.2 22.1 70% 31 76.3 0.0
01 08:35 SW 6 16.09 Fair CLR 27.6 22.3 73% 30 76.33 0.0
01 08:15 SW 6 16.09 Fair CLR 27.1 22.6 76% 30 76.33 0.0
01 07:55 Calm 16.09 Fair CLR 25.2 23.7 25.4 22.6 91% 26 76.3 0.0
01 07:35 Calm 11.27 Fair CLR 24.2 23.4 95% 24 76.28 0.0
01 07:15 Calm 6.44 Fog/Mist CLR 23.3 22.7 96% 76.3 0.0
01 06:55 Calm 8.05 Fog/Mist CLR 23 22.5 97% 76.3 0.0
01 06:35 Calm 8.05 Fog/Mist CLR 22.8 22.3 97% 76.28 0.0
01 06:15 Calm 8.05 Fog/Mist CLR 22.7 22.2 97% 76.28 0.0
01 05:55 Calm 11.27 Fog/Mist CLR 22.9 22.4 97% 76.25 0.0
01 05:35 SE 6 11.27 Fair CLR 23 22.6 98% 76.25 0.0
01 05:15 Calm 4.02 Fog/Mist CLR 22.9 22.5 98% 76.3 0.0
01 04:55 Calm 8.05 Fog/Mist CLR 23 22.5 97% 76.28 0.0
01 04:35 Calm 8.05 Fog/Mist CLR 23.2 22.7 97% 76.28 0.0
01 04:15 Calm 8.05 Fog/Mist CLR 23.3 22.7 96% 76.28 0.0
01 03:55 Calm 16.09 Fair CLR 23.8 22.9 95% 76.28 0.0
01 03:35 Calm 16.09 Fair CLR 23.8 22.8 94% 76.3 0.0
01 03:15 Calm 16.09 Fair CLR 23.7 22.9 95% 76.3 0.0
01 02:55 Calm 16.09 Fair CLR 23.8 22.7 94% 76.3 0.0
01 02:35 Calm 16.09 Fair CLR 23.7 22.8 95% 76.33 0.0
01 02:15 Calm 11.27 Fair CLR 23.5 22.6 95% 76.33 0.0
01 01:55 Calm 16.09 Fair CLR 23.6 22.5 27.4 23.2 94% 76.33 0.0
01 01:35 Calm 16.09 Fair CLR 23.6 22.6 94% 76.35 0.0
01 01:15 Calm 16.09 Fair CLR 23.6 22.5 94% 76.35 0.0
01 00:55 Calm 16.09 Partly Cloudy SCT120 23.6 22.4 93% 76.38 0.0
01 00:35 Calm 16.09 Partly Cloudy SCT120 23.6 22.4 93% 76.38 0.0
01 00:15 Calm 16.09 Fair CLR 23.3 22.4 95% 76.38 0.0
31 23:55 Calm 16.09 Partly Cloudy SCT120 23.3 22.4 95% 76.4 0.0
31 23:35 Calm 16.09 Partly Cloudy SCT120 23.6 22.5 94% 76.4 0.0
31 23:15 Calm 16.09 Fair CLR 23.5 22.5 94% 76.4 0.0
31 22:55 E 6 16.09 Fair CLR 23.8 22.5 92% 76.4 0.0
31 22:35 Calm 16.09 Fair CLR 23.8 22.4 92% 76.4 0.0
31 22:15 Calm 16.09 Fair CLR 24.5 22.6 89% 25 76.38 0.0
31 21:55 Calm 16.09 Fair CLR 24.3 22.7 91% 24 76.4 0.0
31 21:35 Calm 16.09 Fair CLR 25.4 22.7 85% 27 76.38 0.0
31 21:15 Calm 16.09 Fair CLR 25.3 22.9 87% 26 76.38 0.0
31 20:55 Calm 16.09 Fair CLR 25.6 22.7 84% 27 76.38 0.0
31 20:35 Calm 16.09 Fair CLR 26.4 22.6 80% 28 76.38 0.0
31 20:15 Calm 16.09 Fair CLR 26.9 22.6 77% 29 76.35 0.0
31 19:35 SE 7 16.09 Fair CLR 28 22.5 72% 31 76.35 0.0
31 19:15 SE 6 16.09 Fair CLR 28.4 22.6 71% 32 76.35 0.0
31 18:55 E 7 16.09 Fair CLR 28.8 22 67% 32 76.38 0.0
31 18:35 E 6 16.09 Fair CLR 29 22.2 67% 32 76.38 0.0
31 18:15 Calm 16.09 Partly Cloudy SCT034 SCT055 SCT110 29.1 22 66% 32 76.4 0.0
31 17:55 E 6 16.09 Fair CLR 28.8 22 67% 32 76.4 0.0
31 17:35 Calm 16.09 Fair CLR 29.7 21.2 60% 32 76.4 0.0
31 17:15 Calm 16.09 Fair CLR 29.8 21 59% 32 76.38 0.0
31 16:55 N 6 16.09 Fair CLR 29.9 21 59% 32 76.38 0.0
31 16:35 N 7 16.09 Fair CLR 30.1 21.2 59% 33 76.38 0.0
31 16:15 NE 7 16.09 Fair CLR 30 21.5 60% 33 76.4 0.0
31 15:55 Calm 16.09 Fair CLR 30 21.6 61% 33 76.4 0.0
31 15:35 NE 6 16.09 Fair CLR 29.6 21.4 61% 32 76.4 0.0
31 15:15 N 6 16.09 Fair CLR 29.6 21.5 62% 32 76.43 0.0
31 14:55 E 9 16.09 Fair CLR 29.6 21.9 63% 33 76.45 0.0
31 14:35 N 9 16.09 Fair CLR 29.2 21.8 64% 32 76.45 0.0
31 14:15 N 6 16.09 Fair CLR 29.3 21.7 64% 32 76.45 0.0
31 13:55 N 6 16.09 Fair CLR 29.3 21.9 29.9 22.6 64% 32 76.43 0.0
31 13:35 W 6 11.27 Partly Cloudy SCT032 29.3 21.6 63% 32 76.45 0.0
31 13:15 Calm 16.09 Mostly Cloudy BKN030 29.3 21.6 63% 32 76.48 0.0
31 12:55 SE 7 16.09 Mostly Cloudy BKN030 BKN110 29.8 21.7 62% 33 76.48 0.0
31 12:35 N 6 16.09 Overcast SCT030 BKN035 OVC110 28.6 21.9 67% 31 76.5 0.0
31 12:15 NE 6 16.09 Overcast SCT028 BKN033 OVC110 28.2 21.5 67% 31 76.53 0.0
31 11:55 E 11 16.09 Overcast BKN026 OVC110 29 22 66% 32 76.5 0.0
31 11:35 NE 7 16.09 Overcast BKN024 BKN030 OVC100 28.5 22 68% 31 76.5 0.0
31 11:15 NE 13 16.09 Mostly Cloudy BKN022 BKN100 28.2 22.2 70% 31 76.48 0.0
31 10:55 N 7 16.09 Overcast OVC022 27.1 22.4 76% 30 76.5 0.0
31 10:35 NE 9 16.09 Overcast BKN020 BKN026 OVC110 27.1 22.3 75% 29 76.5 0.0
31 10:15 NE 15 16.09 Overcast SCT018 SCT023 OVC110 26.7 22.4 77% 29 76.48 0.0
31 09:55 E 11 16.09 Mostly Cloudy SCT016 SCT023 BKN110 26.2 22.5 80% 28 76.5 0.0
31 09:35 E 9 16.09 Partly Cloudy SCT014 SCT120 26 22.8 83% 28 76.5 0.0
31 09:15 E 6 16.09 Partly Cloudy SCT010 SCT015 SCT120 25.4 22.8 86% 27 76.5 0.0
31 08:55 Calm 16.09 Mostly Cloudy BKN010 BKN015 BKN100 24.5 22.5 89% 25 76.5 0.0
31 08:35 S 6 16.09 Overcast BKN008 BKN095 OVC120 23.8 21.5 87% 76.5 0.0
31 08:15 Calm 16.09 Overcast BKN095 OVC120 23.2 21.4 90% 76.48 0.0
31 07:55 Calm 16.09 Partly Cloudy SCT095 22.6 21.4 22.6 20.8 93% 76.48 0.0
31 07:35 Calm 16.09 Partly Cloudy SCT110 22 21.5 97% 76.48 0.0
31 07:15 Calm 16.09 Partly Cloudy SCT110 21.5 20.9 96% 76.45 0.0
31 06:55 Calm 16.09 Fair CLR 21.2 20.8 98% 76.45 0.0
31 06:35 Calm 16.09 Fair CLR 21.2 20.7 97% 76.43 0.0
31 06:15 SE 6 16.09 Fair CLR 21.2 20.7 97% 76.4 0.0
31 05:55 Calm 16.09 Fair CLR 21.2 20.6 96% 76.43 0.0
31 05:35 Calm 16.09 Fair CLR 21.2 20.5 96% 76.4 0.0
31 05:15 Calm 16.09 Fair CLR 21.4 20.8 96% 76.4 0.0
31 04:55 Calm 16.09 Fair CLR 21.3 20.8 97% 76.4 0.0
31 04:35 Calm 16.09 Fair CLR 21.5 21 97% 76.4 0.0
31 04:15 Calm 16.09 Fair CLR 21.6 21.2 98% 76.43 0.0
31 03:55 N 6 16.09 Fair CLR 21.3 21 98% 76.4 0.0
31 03:35 Calm 11.27 Fair CLR 20.9 20.6 98% 76.4 0.0
31 03:15 Calm 16.09 Fair CLR 21 20.7 98% 76.4 0.0
31 02:55 Calm 11.27 Fog/Mist CLR 21.1 20.7 98% 76.4 0.0
31 02:35 Calm 11.27 Fair CLR 21.3 21 98% 76.43 0.0
31 02:15 Calm 11.27 Fair CLR 21.2 20.8 98% 76.4 0.0
31 01:55 Calm 16.09 Fair CLR 21.5 21.2 29.3 21.4 98% 76.43 0.0 0.08
31 01:35 Calm 4.02 Fog/Mist VV007 21.6 21.2 98% 76.43 0.0
31 01:15 Calm 11.27 Partly Cloudy SCT110 21.7 21.3 98% 76.43 0.0
31 00:55 Calm 16.09 Mostly Cloudy BKN110 21.7 21.2 97% 76.45 0.0
31 00:35 Calm 16.09 Partly Cloudy SCT110 21.7 21.3 98% 76.45 0.0
31 00:15 Calm 11.27 Fair CLR 21.9 21.4 97% 76.45 0.0
30 23:55 Calm 16.09 Fair CLR 22.1 21.6 97% 76.45 0.0
30 23:35 Calm 16.09 Fair CLR 22.2 21.6 96% 76.45 0.0
30 23:15 Calm 16.09 Fair CLR 22.3 21.8 97% 76.45 0.0
30 22:55 Calm 16.09 Fair CLR 22.3 21.7 96% 76.45 0.0 0.08
30 22:35 Calm 16.09 Fair CLR 22.3 21.7 96% 76.48 0.0
30 22:15 Calm 16.09 Fair CLR 22.4 21.7 96% 76.48 0.0
30 21:55 Calm 16.09 Fair CLR 22.9 21.5 92% 76.48 0.0 0.03
30 21:35 NW 7 16.09 Fair CLR 22.7 21.7 94% 76.48 0.0 0.03
30 21:15 Calm 16.09 Light Rain SCT120 23 21.3 90% 76.45 0.0 0.03
30 20:55 Calm 11.27 Rain BKN120 23.3 20.7 85% 76.45 0.0 0.05
30 20:35 SW 13 11.27 Light Rain BKN110 24 21.4 85% 24 76.45 0.0 0.03
30 20:15 SW 24 G 35 16.09 Light Rain SCT050 SCT075 OVC100 27.2 22.1 74% 30 76.45 0.0
30 19:55 S 6 16.09 Overcast SCT075 OVC100 29.3 20.9 32.2 29.3 61% 32 76.43 0.0
30 19:35 S 11 16.09 Overcast SCT080 OVC100 29.4 20.7 60% 32 76.38 0.0
30 19:15 S 11 16.09 Mostly Cloudy SCT048 BKN080 BKN090 29.7 20.6 58% 32 76.4 0.0
Date Time (edt) Wind (kph) Vis. (km) Weather Sky Cond. Air Dwpt Max. Min. Relative Humidity Wind Chill (°C) Heat Index (°C) altimeter (cm) sea level (mb) 1 hr 3 hr 6 hr
6 hour
Temperature (ºC) Pressure Precipitation (cm)